createdAt,value
2023-06-11T00:01:50.613Z,20.41
2023-06-11T00:04:20.314Z,20.33
2023-06-11T00:06:47.728Z,20.29
2023-06-11T00:09:14.233Z,20.27
2023-06-11T00:11:42.856Z,20.24
2023-06-11T00:14:10.353Z,20.21
2023-06-11T00:16:38.351Z,20.14
2023-06-11T00:19:05.694Z,20.11
2023-06-11T00:21:33.031Z,20.07
2023-06-11T00:24:00.610Z,20.02
2023-06-11T00:26:27.611Z,19.99
2023-06-11T00:28:54.109Z,19.94
2023-06-11T00:31:20.493Z,19.87
2023-06-11T00:33:46.971Z,19.85
2023-06-11T00:36:13.516Z,19.83
2023-06-11T00:38:40.000Z,19.79
2023-06-11T00:41:06.487Z,19.73
2023-06-11T00:43:33.005Z,19.69
2023-06-11T00:46:03.227Z,19.61
2023-06-11T00:48:29.860Z,19.55
2023-06-11T00:50:56.463Z,19.49
2023-06-11T00:53:23.022Z,19.45
2023-06-11T00:55:49.763Z,19.44
2023-06-11T00:58:18.265Z,19.38
2023-06-11T01:00:48.228Z,19.27
2023-06-11T01:03:22.527Z,19.21
2023-06-11T01:05:50.552Z,19.18
2023-06-11T01:08:20.802Z,19.15
2023-06-11T01:10:48.330Z,19.11
2023-06-11T01:13:14.978Z,19.06
2023-06-11T01:15:41.537Z,19.00
2023-06-11T01:18:23.930Z,18.97
2023-06-11T01:21:00.172Z,18.93
2023-06-11T01:23:36.893Z,18.88
2023-06-11T01:26:16.178Z,18.87
2023-06-11T01:28:47.168Z,18.84
2023-06-11T01:31:16.607Z,18.81
2023-06-11T01:33:44.346Z,18.76
2023-06-11T01:36:11.977Z,18.73
2023-06-11T01:38:43.143Z,18.70
2023-06-11T01:41:12.492Z,18.65
2023-06-11T01:43:39.034Z,18.61
2023-06-11T01:46:06.114Z,18.56
2023-06-11T01:48:33.289Z,18.56
2023-06-11T01:51:02.739Z,18.58
2023-06-11T01:53:29.148Z,18.57
2023-06-11T01:55:58.310Z,18.54
2023-06-11T01:58:24.893Z,18.51
2023-06-11T02:00:51.413Z,18.49
2023-06-11T02:03:18.055Z,18.48
2023-06-11T02:05:44.985Z,18.42
2023-06-11T02:08:11.782Z,18.38
2023-06-11T02:10:38.356Z,18.35
2023-06-11T02:13:04.804Z,18.34
2023-06-11T02:15:31.436Z,18.28
2023-06-11T02:17:58.002Z,18.25
2023-06-11T02:20:24.695Z,18.21
2023-06-11T02:22:51.277Z,18.18
2023-06-11T02:25:17.918Z,18.14
2023-06-11T02:27:46.628Z,18.16
2023-06-11T02:30:13.832Z,18.13
2023-06-11T02:32:41.397Z,18.12
2023-06-11T02:35:09.533Z,18.09
2023-06-11T02:37:36.072Z,18.06
2023-06-11T02:40:02.673Z,18.05
2023-06-11T02:42:29.195Z,18.00
2023-06-11T02:44:55.739Z,18.01
2023-06-11T02:47:22.326Z,17.99
2023-06-11T02:49:48.763Z,17.95
2023-06-11T02:52:15.280Z,17.93
2023-06-11T02:54:42.036Z,17.91
2023-06-11T02:57:08.456Z,17.89
2023-06-11T02:59:35.582Z,17.91
2023-06-11T03:02:01.954Z,17.95
2023-06-11T03:04:28.407Z,17.97
2023-06-11T03:06:54.846Z,18.00
2023-06-11T03:09:22.293Z,18.04
2023-06-11T03:11:48.713Z,18.06
2023-06-11T03:14:15.149Z,18.09
2023-06-11T03:16:41.561Z,18.10
2023-06-11T03:19:07.955Z,18.12
2023-06-11T03:21:34.635Z,18.15
2023-06-11T03:24:01.312Z,18.16
2023-06-11T03:26:28.978Z,18.17
2023-06-11T03:28:55.803Z,18.20
2023-06-11T03:31:22.350Z,18.20
2023-06-11T03:33:48.863Z,18.22
2023-06-11T03:36:15.349Z,18.24
2023-06-11T03:38:41.779Z,18.25
2023-06-11T03:41:10.714Z,18.24
2023-06-11T03:43:37.182Z,18.24
2023-06-11T03:46:04.567Z,18.24
2023-06-11T03:48:31.035Z,18.27
2023-06-11T03:50:57.789Z,18.28
2023-06-11T03:53:24.218Z,18.28
2023-06-11T03:55:50.852Z,18.25
2023-06-11T03:58:17.286Z,18.25
2023-06-11T04:00:43.726Z,18.25
2023-06-11T04:03:10.271Z,18.28
2023-06-11T04:05:37.564Z,18.29
2023-06-11T04:08:04.622Z,18.32
2023-06-11T04:10:31.132Z,18.35
2023-06-11T04:12:57.693Z,18.37
2023-06-11T04:15:24.260Z,18.39
2023-06-11T04:17:50.687Z,18.38
2023-06-11T04:20:17.267Z,18.38
2023-06-11T04:22:43.687Z,18.40
2023-06-11T04:25:10.542Z,18.42
2023-06-11T04:27:37.726Z,18.44
2023-06-11T04:30:04.683Z,18.46
2023-06-11T04:32:35.968Z,18.47
2023-06-11T04:35:03.561Z,18.50
2023-06-11T04:37:31.731Z,18.55
2023-06-11T04:40:11.179Z,18.59
2023-06-11T04:42:41.371Z,18.62
2023-06-11T04:45:10.175Z,18.66
2023-06-11T04:47:37.809Z,18.68
2023-06-11T04:50:06.192Z,18.70
2023-06-11T04:52:36.083Z,18.71
2023-06-11T04:55:04.517Z,18.70
2023-06-11T04:57:35.049Z,18.75
2023-06-11T05:00:02.578Z,18.79
2023-06-11T05:02:29.622Z,18.82
2023-06-11T05:04:56.097Z,18.86
2023-06-11T05:07:22.709Z,18.88
2023-06-11T05:09:49.104Z,18.93
2023-06-11T05:12:16.878Z,18.98
2023-06-11T05:14:46.855Z,19.01
2023-06-11T05:17:13.682Z,19.07
2023-06-11T05:19:40.171Z,19.12
2023-06-11T05:22:06.669Z,19.18
2023-06-11T05:24:33.277Z,19.20
2023-06-11T05:27:00.065Z,19.21
2023-06-11T05:29:26.754Z,19.25
2023-06-11T05:31:53.419Z,19.30
2023-06-11T05:34:20.154Z,19.36
2023-06-11T05:36:49.247Z,19.40
2023-06-11T05:39:15.737Z,19.42
2023-06-11T05:41:42.175Z,19.47
2023-06-11T05:44:08.609Z,19.52
2023-06-11T05:46:35.173Z,19.57
2023-06-11T05:49:01.639Z,19.59
2023-06-11T05:51:28.093Z,19.65
2023-06-11T05:53:54.599Z,19.71
2023-06-11T05:56:20.997Z,19.77
2023-06-11T05:58:47.451Z,19.82
2023-06-11T06:01:13.881Z,19.87
2023-06-11T06:03:40.773Z,19.91
2023-06-11T06:06:10.006Z,19.97
2023-06-11T06:08:36.936Z,20.04
2023-06-11T06:11:03.433Z,20.10
2023-06-11T06:13:30.276Z,20.16
2023-06-11T06:15:56.935Z,20.25
2023-06-11T06:18:23.883Z,20.33
2023-06-11T06:20:51.555Z,20.39
2023-06-11T06:23:18.004Z,20.45
2023-06-11T06:25:44.543Z,20.53
2023-06-11T06:28:11.166Z,20.63
2023-06-11T06:30:39.870Z,20.74
2023-06-11T06:33:06.650Z,20.86
2023-06-11T06:35:33.561Z,21.01
2023-06-11T06:38:01.609Z,21.14
2023-06-11T06:40:28.572Z,21.26
2023-06-11T06:42:55.111Z,21.40
2023-06-11T06:45:21.518Z,21.54
2023-06-11T06:47:48.239Z,21.73
2023-06-11T06:50:15.226Z,21.84
2023-06-11T06:52:41.617Z,21.97
2023-06-11T06:55:08.580Z,22.11
2023-06-11T06:57:35.324Z,22.26
2023-06-11T07:00:02.105Z,22.43
2023-06-11T07:02:28.753Z,22.58
2023-06-11T07:04:55.423Z,22.75
2023-06-11T07:07:25.496Z,22.88
2023-06-11T07:09:52.273Z,23.02
2023-06-11T07:12:19.540Z,23.17
2023-06-11T07:14:46.130Z,23.29
2023-06-11T07:17:12.576Z,23.40
2023-06-11T07:19:39.147Z,23.53
2023-06-11T07:22:05.834Z,23.66
2023-06-11T07:24:32.264Z,23.77
2023-06-11T07:26:58.673Z,23.89
2023-06-11T07:29:25.936Z,24.01
2023-06-11T07:31:52.511Z,24.14
2023-06-11T07:34:20.572Z,24.30
2023-06-11T07:36:46.970Z,24.40
2023-06-11T07:39:13.335Z,24.51
2023-06-11T07:41:39.732Z,24.58
2023-06-11T07:44:06.461Z,24.65
2023-06-11T07:46:32.920Z,24.72
2023-06-11T07:48:59.496Z,24.84
2023-06-11T07:51:26.286Z,24.95
2023-06-11T07:53:52.580Z,25.09
2023-06-11T07:56:19.281Z,25.20
2023-06-11T07:58:45.777Z,25.26
2023-06-11T08:01:12.139Z,25.40
2023-06-11T08:03:38.681Z,25.54
2023-06-11T08:06:05.334Z,25.69
2023-06-11T08:08:31.787Z,25.79
2023-06-11T08:10:58.188Z,25.88
2023-06-11T08:13:24.614Z,25.96
2023-06-11T08:15:51.180Z,25.99
2023-06-11T08:18:19.811Z,26.08
2023-06-11T08:20:47.359Z,26.11
2023-06-11T08:23:13.920Z,26.22
2023-06-11T08:25:40.703Z,26.32
2023-06-11T08:28:07.375Z,26.42
2023-06-11T08:30:33.944Z,26.55
2023-06-11T08:33:02.681Z,26.67
2023-06-11T08:35:29.534Z,26.78
2023-06-11T08:37:56.040Z,26.86
2023-06-11T08:40:22.825Z,27.00
2023-06-11T08:42:50.591Z,27.19
2023-06-11T08:45:18.391Z,27.23
2023-06-11T08:47:53.588Z,27.35
2023-06-11T08:50:21.789Z,27.42
2023-06-11T08:52:54.208Z,27.56
2023-06-11T08:55:20.908Z,27.63
2023-06-11T08:57:48.038Z,27.86
2023-06-11T09:00:15.330Z,28.08
2023-06-11T09:02:41.877Z,28.15
2023-06-11T09:05:09.136Z,28.15
2023-06-11T09:07:37.417Z,28.24
2023-06-11T09:10:09.598Z,28.44
2023-06-11T09:12:37.360Z,28.54
2023-06-11T09:15:06.094Z,28.60
2023-06-11T09:17:39.652Z,28.78
2023-06-11T09:20:09.483Z,28.97
2023-06-11T09:22:38.327Z,29.17
2023-06-11T09:25:17.618Z,29.33
2023-06-11T09:27:49.089Z,29.33
2023-06-11T09:30:18.344Z,29.43
2023-06-11T09:32:47.162Z,29.49
2023-06-11T09:35:16.700Z,29.58
2023-06-11T09:37:52.829Z,29.67
2023-06-11T09:40:21.195Z,29.67
2023-06-11T09:42:49.241Z,29.67
2023-06-11T09:45:19.384Z,29.75
2023-06-11T09:47:47.351Z,29.82
2023-06-11T09:50:19.228Z,30.02
2023-06-11T09:52:46.440Z,30.16
2023-06-11T09:55:13.220Z,30.36
2023-06-11T09:57:41.314Z,30.58
2023-06-11T10:00:14.574Z,30.64
2023-06-11T10:02:43.052Z,30.72
2023-06-11T10:05:11.301Z,30.66
2023-06-11T10:07:47.660Z,30.72
2023-06-11T10:10:17.668Z,30.73
2023-06-11T10:12:49.783Z,30.74
2023-06-11T10:15:17.170Z,30.67
2023-06-11T10:17:52.141Z,30.81
2023-06-11T10:20:20.545Z,31.03
2023-06-11T10:22:46.996Z,31.20
2023-06-11T10:25:13.632Z,31.31
2023-06-11T10:27:43.511Z,31.30
2023-06-11T10:30:10.983Z,31.35
2023-06-11T10:32:50.275Z,31.11
2023-06-11T10:35:23.867Z,30.83
2023-06-11T10:38:02.088Z,30.91
2023-06-11T10:40:36.175Z,31.00
2023-06-11T10:43:05.723Z,31.01
2023-06-11T10:45:37.465Z,31.03
2023-06-11T10:48:04.460Z,31.15
2023-06-11T10:50:35.013Z,31.28
2023-06-11T10:53:08.023Z,31.31
2023-06-11T10:55:35.985Z,31.47
2023-06-11T10:58:03.018Z,31.66
2023-06-11T11:00:33.721Z,31.78
2023-06-11T11:03:05.563Z,31.73
2023-06-11T11:05:32.446Z,31.78
2023-06-11T11:08:02.116Z,31.78
2023-06-11T11:10:29.619Z,31.71
2023-06-11T11:12:56.218Z,31.80
2023-06-11T11:15:22.706Z,31.85
2023-06-11T11:17:50.050Z,31.86
2023-06-11T11:20:18.691Z,31.94
2023-06-11T11:22:55.112Z,31.95
2023-06-11T11:25:23.135Z,32.06
2023-06-11T11:27:49.717Z,32.11
2023-06-11T11:30:17.454Z,32.08
2023-06-11T11:32:44.287Z,32.04
2023-06-11T11:35:12.826Z,32.08
2023-06-11T11:37:40.599Z,32.10
2023-06-11T11:40:08.404Z,32.27
2023-06-11T11:42:56.544Z,32.35
2023-06-11T11:45:30.861Z,32.47
2023-06-11T11:47:57.335Z,32.56
2023-06-11T11:50:26.915Z,32.59
2023-06-11T11:53:03.656Z,32.51
2023-06-11T11:55:32.415Z,32.51
2023-06-11T11:58:23.246Z,32.56
2023-06-11T12:00:52.075Z,32.59
2023-06-11T12:03:21.054Z,32.60
2023-06-11T12:06:06.062Z,32.63
2023-06-11T12:08:34.290Z,32.65
2023-06-11T12:11:01.974Z,32.67
2023-06-11T12:13:28.924Z,32.66
2023-06-11T12:15:55.526Z,32.67
2023-06-11T12:18:21.909Z,32.72
2023-06-11T12:20:48.348Z,32.82
2023-06-11T12:23:15.362Z,32.80
2023-06-11T12:25:43.341Z,32.66
2023-06-11T12:28:09.974Z,32.61
2023-06-11T12:30:36.729Z,32.58
2023-06-11T12:33:03.758Z,32.52
2023-06-11T12:35:31.502Z,32.66
2023-06-11T12:37:58.286Z,32.84
2023-06-11T12:40:25.283Z,32.98
2023-06-11T12:42:57.778Z,32.99
2023-06-11T12:45:27.355Z,33.13
2023-06-11T12:47:54.394Z,33.15
2023-06-11T12:50:24.140Z,33.11
2023-06-11T12:52:53.655Z,33.04
2023-06-11T12:55:21.487Z,33.06
2023-06-11T12:57:48.110Z,33.00
2023-06-11T13:00:15.768Z,32.87
2023-06-11T13:02:42.679Z,32.96
2023-06-11T13:05:09.564Z,32.97
2023-06-11T13:07:35.965Z,33.00
2023-06-11T13:10:02.608Z,33.02
2023-06-11T13:12:29.059Z,32.97
2023-06-11T13:14:55.729Z,32.96
2023-06-11T13:17:22.307Z,32.97
2023-06-11T13:19:49.956Z,33.06
2023-06-11T13:22:17.291Z,33.10
2023-06-11T13:24:44.209Z,33.17
2023-06-11T13:27:10.818Z,33.06
2023-06-11T13:29:37.510Z,33.02
2023-06-11T13:32:04.559Z,33.02
2023-06-11T13:34:33.836Z,33.04
2023-06-11T13:37:02.127Z,33.08
2023-06-11T13:39:28.704Z,33.16
2023-06-11T13:41:55.321Z,33.08
2023-06-11T13:44:23.492Z,33.11
2023-06-11T13:46:49.977Z,33.11
2023-06-11T13:49:16.895Z,33.13
2023-06-11T13:51:43.569Z,33.09
2023-06-11T13:54:10.009Z,33.13
2023-06-11T13:56:36.543Z,33.07
2023-06-11T13:59:03.543Z,33.05
2023-06-11T14:01:30.035Z,33.05
2023-06-11T14:03:56.531Z,33.10
2023-06-11T14:06:22.999Z,33.03
2023-06-11T14:08:49.812Z,32.93
2023-06-11T14:11:18.294Z,32.98
2023-06-11T14:13:47.054Z,33.10
2023-06-11T14:16:13.685Z,33.03
2023-06-11T14:18:40.169Z,32.91
2023-06-11T14:21:06.641Z,32.97
2023-06-11T14:23:32.968Z,33.07
2023-06-11T14:25:59.433Z,33.04
2023-06-11T14:28:25.759Z,33.06
2023-06-11T14:30:53.701Z,33.03
2023-06-11T14:33:20.867Z,32.99
2023-06-11T14:35:47.831Z,32.96
2023-06-11T14:38:14.451Z,32.93
2023-06-11T14:40:41.118Z,32.98
2023-06-11T14:43:07.834Z,32.90
2023-06-11T14:45:34.314Z,32.94
2023-06-11T14:48:01.102Z,32.98
2023-06-11T14:50:27.556Z,32.99
2023-06-11T14:52:53.996Z,32.99
2023-06-11T14:55:20.943Z,32.99
2023-06-11T14:57:47.419Z,32.96
2023-06-11T15:00:14.952Z,32.89
2023-06-11T15:02:41.855Z,32.93
2023-06-11T15:05:08.638Z,32.91
2023-06-11T15:07:36.164Z,32.86
2023-06-11T15:10:04.845Z,32.87
2023-06-11T15:12:31.572Z,32.82
2023-06-11T15:15:01.143Z,32.80
2023-06-11T15:17:30.706Z,32.76
2023-06-11T15:19:59.398Z,32.77
2023-06-11T15:22:26.084Z,32.77
2023-06-11T15:24:52.582Z,32.75
2023-06-11T15:27:19.040Z,32.70
2023-06-11T15:29:46.082Z,32.66
2023-06-11T15:32:14.593Z,32.67
2023-06-11T15:34:42.653Z,32.72
2023-06-11T15:37:09.138Z,32.73
2023-06-11T15:39:35.554Z,32.77
2023-06-11T15:42:03.837Z,32.76
2023-06-11T15:44:30.360Z,32.69
2023-06-11T15:46:56.825Z,32.61
2023-06-11T15:49:23.349Z,32.56
2023-06-11T15:51:49.676Z,32.59
2023-06-11T15:54:16.424Z,32.50
2023-06-11T15:56:47.305Z,32.44
2023-06-11T15:59:14.437Z,32.35
2023-06-11T16:01:41.011Z,32.32
2023-06-11T16:04:07.608Z,32.33
2023-06-11T16:06:33.934Z,32.36
2023-06-11T16:09:01.407Z,32.33
2023-06-11T16:11:28.037Z,32.27
2023-06-11T16:13:55.447Z,32.27
2023-06-11T16:16:22.000Z,32.27
2023-06-11T16:18:50.886Z,32.21
2023-06-11T16:21:19.607Z,32.16
2023-06-11T16:24:11.469Z,32.12
2023-06-11T16:26:41.643Z,32.14
2023-06-11T16:29:08.158Z,32.06
2023-06-11T16:31:34.503Z,31.98
2023-06-11T16:34:01.478Z,31.91
2023-06-11T16:36:29.914Z,31.85
2023-06-11T16:39:01.291Z,31.85
2023-06-11T16:41:33.019Z,31.78
2023-06-11T16:43:59.569Z,31.80
2023-06-11T16:46:26.058Z,31.70
2023-06-11T16:48:52.590Z,31.69
2023-06-11T16:51:19.240Z,31.66
2023-06-11T16:53:45.781Z,31.69
2023-06-11T16:56:12.698Z,31.64
2023-06-11T16:58:39.189Z,31.52
2023-06-11T17:01:05.686Z,31.49
2023-06-11T17:03:32.352Z,31.42
2023-06-11T17:05:58.829Z,31.38
2023-06-11T17:08:25.252Z,31.35
2023-06-11T17:10:51.746Z,31.30
2023-06-11T17:13:19.754Z,31.29
2023-06-11T17:15:46.757Z,31.31
2023-06-11T17:18:13.254Z,31.39
2023-06-11T17:20:40.940Z,31.36
2023-06-11T17:23:08.041Z,31.28
2023-06-11T17:25:34.707Z,31.21
2023-06-11T17:28:01.245Z,31.20
2023-06-11T17:30:27.744Z,31.13
2023-06-11T17:32:54.248Z,31.04
2023-06-11T17:35:20.764Z,31.01
2023-06-11T17:37:47.195Z,30.96
2023-06-11T17:40:16.568Z,30.91
2023-06-11T17:42:43.336Z,30.86
2023-06-11T17:45:10.102Z,30.81
2023-06-11T17:47:37.820Z,30.73
2023-06-11T17:50:04.908Z,30.54
2023-06-11T17:52:31.382Z,30.47
2023-06-11T17:54:57.793Z,30.40
2023-06-11T17:57:24.215Z,30.35
2023-06-11T17:59:50.837Z,30.26
2023-06-11T18:02:17.253Z,30.18
2023-06-11T18:04:43.802Z,30.09
2023-06-11T18:07:10.285Z,30.01
2023-06-11T18:09:36.771Z,29.88
2023-06-11T18:12:03.796Z,29.76
2023-06-11T18:14:30.478Z,29.65
2023-06-11T18:16:58.617Z,29.58
2023-06-11T18:19:25.592Z,29.48
2023-06-11T18:21:52.056Z,29.42
2023-06-11T18:24:18.655Z,29.36
2023-06-11T18:26:45.024Z,29.31
2023-06-11T18:29:11.452Z,29.19
2023-06-11T18:31:37.953Z,29.15
2023-06-11T18:34:04.487Z,29.09
2023-06-11T18:36:31.098Z,29.00
2023-06-11T18:38:57.680Z,28.96
2023-06-11T18:41:24.140Z,28.92
2023-06-11T18:43:50.588Z,28.85
2023-06-11T18:46:17.219Z,28.77
2023-06-11T18:48:43.644Z,28.74
2023-06-11T18:51:10.084Z,28.67
2023-06-11T18:53:36.492Z,28.62
2023-06-11T18:56:03.008Z,28.52
2023-06-11T18:58:29.389Z,28.48
2023-06-11T19:00:55.867Z,28.36
2023-06-11T19:03:22.388Z,28.30
2023-06-11T19:05:50.621Z,28.24
2023-06-11T19:08:19.144Z,28.21
2023-06-11T19:10:50.515Z,28.16
2023-06-11T19:13:19.940Z,28.07
2023-06-11T19:15:47.029Z,27.97
2023-06-11T19:18:14.739Z,27.89
2023-06-11T19:20:41.760Z,27.85
2023-06-11T19:23:11.241Z,27.80
2023-06-11T19:25:37.708Z,27.72
2023-06-11T19:28:04.536Z,27.61
2023-06-11T19:30:30.981Z,27.56
2023-06-11T19:32:57.620Z,27.49
2023-06-11T19:35:24.297Z,27.42
2023-06-11T19:37:50.763Z,27.34
2023-06-11T19:40:17.235Z,27.27
2023-06-11T19:42:43.663Z,27.21
2023-06-11T19:45:10.963Z,27.11
2023-06-11T19:47:38.125Z,26.98
2023-06-11T19:50:06.285Z,26.94
2023-06-11T19:52:32.835Z,26.85
2023-06-11T19:54:59.418Z,26.81
2023-06-11T19:57:25.941Z,26.71
2023-06-11T19:59:52.501Z,26.71
2023-06-11T20:02:19.441Z,26.63
2023-06-11T20:04:46.558Z,26.60
2023-06-11T20:07:15.045Z,26.53
2023-06-11T20:09:41.529Z,26.48
2023-06-11T20:12:08.378Z,26.45
2023-06-11T20:14:36.575Z,26.43
2023-06-11T20:17:03.918Z,26.38
2023-06-11T20:19:30.516Z,26.32
2023-06-11T20:21:57.590Z,26.23
2023-06-11T20:24:26.919Z,26.15
2023-06-11T20:26:54.555Z,26.11
2023-06-11T20:29:24.983Z,26.08
2023-06-11T20:31:52.208Z,26.03
2023-06-11T20:34:18.974Z,25.97
2023-06-11T20:36:47.726Z,25.95
2023-06-11T20:39:14.177Z,25.87
2023-06-11T20:41:40.616Z,25.82
2023-06-11T20:44:07.055Z,25.73
2023-06-11T20:46:33.680Z,25.62
2023-06-11T20:49:00.586Z,25.55
2023-06-11T20:51:27.178Z,25.55
2023-06-11T20:53:53.707Z,25.48
2023-06-11T20:56:20.510Z,25.40
2023-06-11T20:58:46.977Z,25.41
2023-06-11T21:01:13.838Z,25.34
2023-06-11T21:03:40.542Z,25.32
2023-06-11T21:06:07.237Z,25.28
2023-06-11T21:08:33.625Z,25.24
2023-06-11T21:11:02.279Z,25.24
2023-06-11T21:13:28.761Z,25.19
2023-06-11T21:15:55.284Z,25.13
2023-06-11T21:18:21.741Z,25.16
2023-06-11T21:20:48.165Z,25.11
2023-06-11T21:23:14.848Z,25.05
2023-06-11T21:25:41.317Z,24.96
2023-06-11T21:28:07.940Z,24.89
2023-06-11T21:30:34.959Z,24.86
2023-06-11T21:33:01.535Z,24.80
2023-06-11T21:35:28.040Z,24.76
2023-06-11T21:37:55.480Z,24.69
2023-06-11T21:40:22.055Z,24.69
2023-06-11T21:42:48.588Z,24.68
2023-06-11T21:45:15.209Z,24.64
2023-06-11T21:47:42.141Z,24.60
2023-06-11T21:50:10.618Z,24.54
2023-06-11T21:52:42.273Z,24.47
2023-06-11T21:55:09.233Z,24.41
2023-06-11T21:57:35.876Z,24.37
2023-06-11T22:00:11.954Z,24.41
2023-06-11T22:02:40.006Z,24.37
2023-06-11T22:05:09.813Z,24.34
2023-06-11T22:07:37.237Z,24.27
2023-06-11T22:10:05.023Z,24.20
2023-06-11T22:12:41.110Z,24.14
2023-06-11T22:15:09.369Z,24.08
2023-06-11T22:17:35.975Z,24.00
2023-06-11T22:20:07.962Z,23.97
2023-06-11T22:22:43.430Z,23.94
2023-06-11T22:25:11.928Z,23.89
2023-06-11T22:27:40.892Z,23.83
2023-06-11T22:30:12.870Z,23.82
2023-06-11T22:32:39.755Z,23.79
2023-06-11T22:35:06.651Z,23.75
2023-06-11T22:37:35.059Z,23.69
2023-06-11T22:40:02.402Z,23.61
2023-06-11T22:42:28.982Z,23.54
2023-06-11T22:44:57.019Z,23.51
2023-06-11T22:47:23.454Z,23.48
2023-06-11T22:49:49.975Z,23.43
2023-06-11T22:52:19.681Z,23.41
2023-06-11T22:54:46.797Z,23.36
2023-06-11T22:57:13.211Z,23.28
2023-06-11T22:59:39.664Z,23.27
2023-06-11T23:02:06.176Z,23.27
2023-06-11T23:04:35.311Z,23.21
2023-06-11T23:07:06.042Z,23.16
2023-06-11T23:09:32.479Z,23.11
2023-06-11T23:11:58.960Z,23.05
2023-06-11T23:14:25.637Z,23.01
2023-06-11T23:16:52.693Z,22.97
2023-06-11T23:19:23.535Z,22.91
2023-06-11T23:21:50.310Z,22.86
2023-06-11T23:24:18.261Z,22.82
2023-06-11T23:26:46.144Z,22.79
2023-06-11T23:29:16.365Z,22.74
2023-06-11T23:31:43.625Z,22.73
2023-06-11T23:34:11.198Z,22.72
2023-06-11T23:36:41.173Z,22.65
2023-06-11T23:39:09.263Z,22.60
2023-06-11T23:41:35.649Z,22.57
2023-06-11T23:44:02.113Z,22.52
2023-06-11T23:46:28.684Z,22.48
2023-06-11T23:48:55.480Z,22.47
2023-06-11T23:51:21.986Z,22.49
2023-06-11T23:53:48.379Z,22.45
2023-06-11T23:56:14.808Z,22.41
2023-06-11T23:58:41.269Z,22.42
